Time;durP1;ratioP1;P1;durP2;ratioP2;P2;SDS_P1;SDS_P2;PMS_P1;PMS_P2;Temp;Humidity;BMP_temperature;BMP_pressure;BME280_temperature;BME280_humidity;BME280_pressure;Samples;Min_cycle;Max_cycle;Signal;HPM_P1;HPM_P2
2024/01/05 00:06:06;;;;;;;12.10;11.70;;;5.20;99.90;;;;;;6187393;22;20188;-85
2024/01/05 00:09:06;;;;;;;12.00;11.60;;;5.20;99.90;;;;;;6212580;22;20192;-88
2024/01/05 00:12:22;;;;;;;11.97;11.57;;;5.30;99.90;;;;;;6210776;23;21090;-86
2024/01/05 00:15:35;;;;;;;12.00;11.60;;;5.30;99.90;;;;;;6201004;23;20211;-87
2024/01/05 00:18:53;;;;;;;11.90;11.50;;;5.30;99.90;;;;;;6199805;23;20244;-87
2024/01/05 00:21:51;;;;;;;11.77;11.37;;;5.30;99.90;;;;;;6198192;23;20202;-88
2024/01/05 00:25:11;;;;;;;11.80;11.40;;;5.20;99.90;;;;;;6196484;23;20207;-88
2024/01/05 00:28:05;;;;;;;12.00;11.60;;;5.20;99.90;;;;;;6155737;23;20199;-87
2024/01/05 00:31:12;;;;;;;;;;;;;;;;;;;;;
2024/01/05 00:38:04;;;;;;;;;;;;;;;;;;;;;
2024/01/05 00:41:42;;;;;;;11.87;11.47;;;5.30;99.90;;;;;;6183399;23;20195;-88
2024/01/05 00:44:50;;;;;;;11.80;11.40;;;5.30;99.90;;;;;;6091781;23;20236;-87
2024/01/05 00:47:28;;;;;;;11.77;11.37;;;5.40;99.90;;;;;;6135043;23;20207;-87
2024/01/05 00:59:53;;;;;;;;;;;;;;;;;;;;;
2024/01/05 01:03:28;;;;;;;;;;;;;;;;;;;;;
2024/01/05 01:06:38;;;;;;;12.10;11.70;;;5.00;99.90;;;;;;6188835;23;20308;-88
2024/01/05 01:16:52;;;;;;;;;;;;;;;;;;;;;
2024/01/05 01:20:19;;;;;;;12.10;11.70;;;4.90;99.90;;;;;;6219696;22;20227;-85
2024/01/05 01:23:25;;;;;;;12.27;11.87;;;4.90;99.90;;;;;;6139857;23;20219;-86
2024/01/05 01:26:55;;;;;;;12.30;11.90;;;4.90;99.90;;;;;;6196920;23;20212;-87
2024/01/05 01:30:25;;;;;;;12.30;11.90;;;4.90;99.90;;;;;;6186562;23;20253;-87
2024/01/05 01:40:25;;;;;;;12.03;11.63;;;4.80;99.90;;;;;;6154503;23;21030;-87
2024/01/05 01:44:13;;;;;;;12.37;11.97;;;4.80;99.90;;;;;;6198084;23;20202;-87
2024/01/05 01:47:17;;;;;;;12.30;11.90;;;4.70;99.90;;;;;;6083397;23;20200;-86
2024/01/05 01:57:42;;;;;;;;;;;;;;;;;;;;;
2024/01/05 02:01:13;;;;;;;12.30;11.90;;;4.50;99.90;;;;;;6107303;23;20201;-86
2024/01/05 02:04:11;;;;;;;12.07;11.67;;;4.40;99.90;;;;;;6062737;23;20204;-87
2024/01/05 02:07:53;;;;;;;11.97;11.57;;;4.40;99.90;;;;;;6189914;23;20200;-87
2024/01/05 02:18:57;;;;;;;12.10;11.70;;;4.40;99.90;;;;;;6047506;23;20233;-87
2024/01/05 02:22:15;;;;;;;11.93;11.53;;;4.50;99.90;;;;;;6151627;23;20199;-87
2024/01/05 02:25:41;;;;;;;11.93;11.53;;;4.40;99.90;;;;;;6198033;23;20210;-87
2024/01/05 02:42:44;;;;;;;12.10;11.70;;;4.40;99.90;;;;;;6104378;23;20240;-87
2024/01/05 03:21:58;;;;;;;12.10;11.70;;;4.00;99.90;;;;;;6171660;23;20195;-88
2024/01/05 03:25:05;;;;;;;;;;;;;;;;;;;;;
2024/01/05 03:35:27;;;;;;;12.23;11.83;;;4.00;99.90;;;;;;6058868;23;20202;-87
2024/01/05 03:42:03;;;;;;;12.30;11.90;;;4.10;99.90;;;;;;6197947;23;20208;-87
2024/01/05 03:45:35;;;;;;;12.23;11.83;;;4.10;99.90;;;;;;6199313;23;20204;-87
2024/01/05 03:52:49;;;;;;;;;;;;;;;;;;;;;
2024/01/05 04:13:46;;;;;;;12.50;12.10;;;3.90;99.90;;;;;;6184540;22;20183;-83
2024/01/05 04:17:20;;;;;;;12.40;12.00;;;4.00;99.90;;;;;;6212431;22;20191;-86
2024/01/05 04:20:53;;;;;;;12.07;11.67;;;4.00;99.90;;;;;;6201597;23;20202;-86
2024/01/05 04:27:52;;;;;;;;;;;;;;;;;;;;;
2024/01/05 04:31:17;;;;;;;;;;;;;;;;;;;;;
2024/01/05 04:34:41;;;;;;;12.10;11.70;;;4.00;99.90;;;;;;6200610;23;20223;-86
2024/01/05 04:38:25;;;;;;;;;;;;;;;;;;;;;
2024/01/05 04:41:43;;;;;;;12.70;12.20;;;4.00;99.90;;;;;;6078331;23;20280;-86
2024/01/05 04:54:53;;;;;;;;;;;;;;;;;;;;;
2024/01/05 05:05:23;;;;;;;;;;;;;;;;;;;;;
2024/01/05 05:09:03;;;;;;;;;;;;;;;;;;;;;
2024/01/05 05:12:41;;;;;;;12.43;11.97;;;3.80;99.90;;;;;;6051686;23;20282;-86
2024/01/05 05:27:25;;;;;;;;;;;;;;;;;;;;;
2024/01/05 05:30:39;;;;;;;12.63;12.13;;;3.80;99.90;;;;;;6194443;23;20196;-86
2024/01/05 05:35:41;;;;;;;12.63;12.13;;;3.80;99.90;;;;;;6093136;22;20201;-80
2024/01/05 05:38:08;;;;;;;12.43;11.97;;;3.80;99.90;;;;;;6095534;23;20193;-80
2024/01/05 05:40:36;;;;;;;12.77;12.27;;;3.80;99.90;;;;;;6096252;23;20187;-80
2024/01/05 05:43:04;;;;;;;12.37;11.97;;;3.80;99.90;;;;;;6096057;23;20166;-80
2024/01/05 05:45:32;;;;;;;12.83;12.33;;;3.80;99.90;;;;;;6094573;23;20469;-81
2024/01/05 05:48:00;;;;;;;12.63;12.13;;;3.80;99.90;;;;;;6093511;23;20198;-78
2024/01/05 05:50:27;;;;;;;12.73;12.23;;;3.80;99.90;;;;;;6092881;23;20198;-79
2024/01/05 05:52:55;;;;;;;12.90;12.40;;;3.80;99.90;;;;;;6095329;23;20182;-77
2024/01/05 05:55:22;;;;;;;12.20;11.80;;;3.80;99.90;;;;;;6096272;23;20198;-78
2024/01/05 05:57:49;;;;;;;12.60;12.10;;;3.80;99.90;;;;;;6096013;23;20190;-79
2024/01/05 06:00:19;;;;;;;12.90;12.40;;;3.80;99.90;;;;;;6084127;23;20217;-80
2024/01/05 06:02:46;;;;;;;12.87;12.37;;;3.80;99.90;;;;;;6076818;23;20262;-80
2024/01/05 06:05:14;;;;;;;13.00;12.50;;;3.80;99.90;;;;;;6080161;23;20206;-80
2024/01/05 06:07:41;;;;;;;12.47;12.00;;;3.80;99.90;;;;;;6074883;23;20256;-80
2024/01/05 06:10:09;;;;;;;12.30;11.90;;;3.80;99.90;;;;;;6074523;23;20202;-82
2024/01/05 06:12:36;;;;;;;12.60;12.10;;;3.80;99.90;;;;;;6075823;23;20222;-82
2024/01/05 06:15:05;;;;;;;12.50;12.00;;;3.80;99.90;;;;;;6075455;23;20217;-81
2024/01/05 06:17:34;;;;;;;12.17;11.77;;;3.80;99.90;;;;;;6076206;23;20233;-81
2024/01/05 06:20:01;;;;;;;12.27;11.87;;;3.80;99.90;;;;;;6078098;23;20206;-82
2024/01/05 06:22:29;;;;;;;12.30;11.90;;;3.80;99.90;;;;;;6078861;23;20202;-82
2024/01/05 06:24:56;;;;;;;12.10;11.70;;;3.80;99.90;;;;;;6088199;23;20207;-81
2024/01/05 06:27:26;;;;;;;12.47;12.00;;;3.80;99.90;;;;;;6093831;23;20199;-82
2024/01/05 06:29:53;;;;;;;12.23;11.83;;;3.80;99.90;;;;;;6087085;23;20217;-82
2024/01/05 06:32:20;;;;;;;12.70;12.20;;;3.70;99.90;;;;;;6081623;23;20301;-82
2024/01/05 06:34:49;;;;;;;12.47;12.00;;;3.80;99.90;;;;;;6079736;23;20210;-82
2024/01/05 06:37:29;;;;;;;12.40;11.97;;;3.70;99.90;;;;;;6084617;23;20209;-81
2024/01/05 06:39:56;;;;;;;11.90;11.50;;;3.70;99.90;;;;;;6079923;23;20206;-81
2024/01/05 06:42:23;;;;;;;11.87;11.47;;;3.70;99.90;;;;;;6077359;23;20198;-82
2024/01/05 06:44:51;;;;;;;12.10;11.70;;;3.70;99.90;;;;;;6077080;23;20208;-82
2024/01/05 06:47:18;;;;;;;12.43;12.03;;;3.70;99.90;;;;;;6077052;23;20198;-82
2024/01/05 06:49:46;;;;;;;12.27;11.87;;;3.70;99.90;;;;;;6077391;23;20207;-82
2024/01/05 06:52:14;;;;;;;12.10;11.70;;;3.70;99.90;;;;;;6078632;23;20190;-82
2024/01/05 06:54:42;;;;;;;12.37;11.97;;;3.70;99.90;;;;;;6081148;23;20261;-82
2024/01/05 06:57:09;;;;;;;11.83;11.43;;;3.70;99.90;;;;;;6081610;23;20242;-82
2024/01/05 06:59:37;;;;;;;12.50;12.00;;;3.70;99.90;;;;;;6084227;23;20202;-81
2024/01/05 07:02:05;;;;;;;12.27;11.87;;;3.70;99.90;;;;;;6090168;23;20217;-82
2024/01/05 07:04:32;;;;;;;12.47;11.97;;;3.70;99.90;;;;;;6078353;23;20241;-81
2024/01/05 07:06:59;;;;;;;12.10;11.70;;;3.70;99.90;;;;;;6078247;23;20222;-82
2024/01/05 07:09:28;;;;;;;12.33;11.93;;;3.70;99.90;;;;;;6077929;23;20226;-82
2024/01/05 07:11:55;;;;;;;12.17;11.73;;;3.70;99.90;;;;;;6078180;23;20269;-81
2024/01/05 07:14:25;;;;;;;12.23;11.80;;;3.70;99.90;;;;;;6076893;23;20229;-82
2024/01/05 07:16:53;;;;;;;12.10;11.70;;;3.70;99.90;;;;;;6079386;23;20225;-82
2024/01/05 07:19:20;;;;;;;12.20;11.80;;;3.70;99.90;;;;;;6076505;23;20221;-81
2024/01/05 07:21:48;;;;;;;12.40;12.00;;;3.70;99.90;;;;;;6076899;23;20210;-82
2024/01/05 07:24:15;;;;;;;12.03;11.63;;;3.80;99.90;;;;;;6077273;23;20210;-82
2024/01/05 07:26:44;;;;;;;12.20;11.80;;;3.80;99.90;;;;;;6076825;23;20206;-82
2024/01/05 07:29:12;;;;;;;11.77;11.37;;;3.80;99.90;;;;;;6076792;23;20202;-81
2024/01/05 07:31:39;;;;;;;11.87;11.47;;;3.80;99.90;;;;;;6077070;23;20218;-82
2024/01/05 07:34:07;;;;;;;11.80;11.40;;;3.80;99.90;;;;;;6076707;23;20221;-82
2024/01/05 07:36:35;;;;;;;11.60;11.20;;;3.80;99.90;;;;;;6076819;23;20202;-81
2024/01/05 07:39:02;;;;;;;11.63;11.23;;;3.80;99.90;;;;;;6077170;23;20203;-81
2024/01/05 07:41:30;;;;;;;11.80;11.40;;;3.80;99.90;;;;;;6077697;23;20285;-82
2024/01/05 07:43:58;;;;;;;11.67;11.27;;;3.80;99.90;;;;;;6077156;23;20198;-82
2024/01/05 07:46:27;;;;;;;11.87;11.47;;;3.80;99.90;;;;;;6077792;23;20205;-82
2024/01/05 07:48:54;;;;;;;11.43;11.03;;;3.80;99.90;;;;;;6077877;23;20210;-83
2024/01/05 07:51:21;;;;;;;11.60;11.20;;;3.80;99.90;;;;;;6079430;23;20234;-82
2024/01/05 07:53:49;;;;;;;11.60;11.20;;;3.80;99.90;;;;;;6079131;23;20280;-79
2024/01/05 07:56:17;;;;;;;11.30;10.90;;;3.80;99.90;;;;;;6078562;23;20225;-80
2024/01/05 07:58:45;;;;;;;11.47;11.07;;;3.80;99.90;;;;;;6077134;23;20237;-80
2024/01/05 08:01:17;;;;;;;11.27;10.87;;;3.80;99.90;;;;;;6078719;23;20198;-81
2024/01/05 08:03:45;;;;;;;11.40;11.00;;;3.90;99.90;;;;;;6080078;23;20253;-81
2024/01/05 08:06:16;;;;;;;11.30;10.90;;;3.90;99.90;;;;;;6083193;23;20190;-81
2024/01/05 08:08:45;;;;;;;11.50;11.10;;;3.90;99.90;;;;;;6080929;23;20257;-80
2024/01/05 08:11:12;;;;;;;11.37;10.97;;;3.90;99.90;;;;;;6079514;23;20258;-81
2024/01/05 08:13:40;;;;;;;11.07;10.77;;;4.00;99.90;;;;;;6079216;23;20214;-80
2024/01/05 08:16:08;;;;;;;10.57;10.27;;;4.00;99.90;;;;;;6079034;23;20205;-80
2024/01/05 08:18:36;;;;;;;10.57;10.27;;;4.00;99.90;;;;;;6078464;23;20213;-80
2024/01/05 08:21:04;;;;;;;10.70;10.40;;;4.00;99.90;;;;;;6078724;23;20207;-80
2024/01/05 08:23:33;;;;;;;10.40;10.10;;;4.00;99.90;;;;;;6078556;23;20202;-81
2024/01/05 08:26:00;;;;;;;10.50;10.20;;;4.00;99.90;;;;;;6079088;23;20212;-80
2024/01/05 08:28:28;;;;;;;10.63;10.33;;;4.00;99.90;;;;;;6079434;23;20207;-80
2024/01/05 08:30:55;;;;;;;10.73;10.43;;;4.00;99.90;;;;;;6080675;23;20203;-80
2024/01/05 08:33:22;;;;;;;11.03;10.73;;;4.00;99.90;;;;;;6080130;23;20214;-80
2024/01/05 08:35:51;;;;;;;11.27;10.87;;;4.10;99.90;;;;;;6079738;23;20210;-80
2024/01/05 08:38:18;;;;;;;11.60;11.20;;;4.10;99.90;;;;;;6078470;23;20265;-81
2024/01/05 08:40:47;;;;;;;11.10;10.70;;;4.20;99.90;;;;;;6078753;23;20210;-80
2024/01/05 08:43:14;;;;;;;10.77;10.47;;;4.20;99.90;;;;;;6078349;23;20254;-81
2024/01/05 08:45:41;;;;;;;10.90;10.60;;;4.20;99.90;;;;;;6077798;23;20205;-81
2024/01/05 08:48:09;;;;;;;10.87;10.57;;;4.30;99.90;;;;;;6077784;23;20202;-81
2024/01/05 08:50:36;;;;;;;10.70;10.40;;;4.30;99.90;;;;;;6078181;23;20198;-80
2024/01/05 08:53:05;;;;;;;10.60;10.30;;;4.30;99.90;;;;;;6078093;23;20214;-80
2024/01/05 08:55:33;;;;;;;10.50;10.20;;;4.30;99.90;;;;;;6079333;23;20206;-81
2024/01/05 08:58:00;;;;;;;10.83;10.53;;;4.30;99.90;;;;;;6078063;23;20201;-81
2024/01/05 09:00:27;;;;;;;10.23;9.93;;;4.30;99.90;;;;;;6077782;23;20202;-80
2024/01/05 09:02:55;;;;;;;10.27;9.97;;;4.40;99.90;;;;;;6077601;23;20206;-81
2024/01/05 09:05:23;;;;;;;10.20;9.90;;;4.40;99.90;;;;;;6078802;23;20221;-81
2024/01/05 09:07:50;;;;;;;10.00;9.70;;;4.40;99.90;;;;;;6078857;23;20199;-81
2024/01/05 09:10:19;;;;;;;10.00;9.70;;;4.50;99.90;;;;;;6078186;23;20217;-81
2024/01/05 09:12:46;;;;;;;9.97;9.67;;;4.60;99.90;;;;;;6078438;23;20202;-81
2024/01/05 09:15:15;;;;;;;10.00;9.70;;;4.60;99.90;;;;;;6077798;23;20210;-81
2024/01/05 09:17:43;;;;;;;10.00;9.70;;;4.70;99.90;;;;;;6078067;23;20221;-80
2024/01/05 09:20:12;;;;;;;9.90;9.60;;;4.70;99.90;;;;;;6077825;23;20210;-81
2024/01/05 09:22:39;;;;;;;9.90;9.60;;;4.80;99.90;;;;;;6078877;23;20195;-81
2024/01/05 09:25:09;;;;;;;9.80;9.50;;;4.90;99.90;;;;;;6078263;23;20202;-81
2024/01/05 09:27:38;;;;;;;9.70;9.40;;;4.90;99.90;;;;;;6078449;23;20217;-81
2024/01/05 09:30:07;;;;;;;9.40;9.10;;;5.10;99.90;;;;;;6077880;23;20206;-81
2024/01/05 09:32:35;;;;;;;9.90;9.60;;;5.10;99.90;;;;;;6080805;23;20210;-80
2024/01/05 09:35:02;;;;;;;9.90;9.60;;;5.20;99.90;;;;;;6077797;23;20218;-80
2024/01/05 09:37:30;;;;;;;9.77;9.47;;;5.30;99.90;;;;;;6079457;23;20248;-82
2024/01/05 09:39:57;;;;;;;10.20;9.90;;;5.30;99.90;;;;;;6079088;23;20234;-80
2024/01/05 09:42:26;;;;;;;9.77;9.47;;;5.40;99.90;;;;;;6078701;23;20202;-80
2024/01/05 09:44:55;;;;;;;9.57;9.27;;;5.40;99.90;;;;;;6079527;23;20202;-80
2024/01/05 09:47:23;;;;;;;9.90;9.60;;;5.40;99.90;;;;;;6080104;23;20203;-80
2024/01/05 09:49:51;;;;;;;9.70;9.40;;;5.40;99.90;;;;;;6078916;23;20218;-81
2024/01/05 09:52:21;;;;;;;9.70;9.40;;;5.40;99.90;;;;;;6077877;23;20222;-79
2024/01/05 09:54:50;;;;;;;9.70;9.40;;;5.50;99.90;;;;;;6077245;23;20206;-80
2024/01/05 09:57:18;;;;;;;9.50;9.20;;;5.50;99.90;;;;;;6079150;23;20202;-79
2024/01/05 09:59:48;;;;;;;9.50;9.20;;;5.70;99.90;;;;;;6077712;23;20197;-79
2024/01/05 10:02:24;;;;;;;9.60;9.30;;;5.90;99.90;;;;;;6080846;23;20234;-81
2024/01/05 10:04:52;;;;;;;9.67;9.37;;;6.10;99.90;;;;;;6084039;23;20284;-80
2024/01/05 10:07:19;;;;;;;9.50;9.20;;;6.20;99.90;;;;;;6083203;23;20191;-80
2024/01/05 10:09:51;;;;;;;9.50;9.20;;;6.50;99.90;;;;;;6080538;23;20257;-80
2024/01/05 10:12:19;;;;;;;9.50;9.20;;;6.60;99.90;;;;;;6079700;23;20195;-80
2024/01/05 10:14:47;;;;;;;9.40;9.10;;;6.80;99.90;;;;;;6078024;23;20209;-82
2024/01/05 10:17:16;;;;;;;9.53;9.23;;;6.90;99.90;;;;;;6077777;23;20202;-80
2024/01/05 10:19:44;;;;;;;9.73;9.43;;;7.00;99.90;;;;;;6076915;23;20198;-81
2024/01/05 10:22:12;;;;;;;9.90;9.60;;;7.10;99.90;;;;;;6077503;23;20191;-80
2024/01/05 10:24:40;;;;;;;10.00;9.70;;;7.20;99.90;;;;;;6077473;23;20217;-80
2024/01/05 10:27:09;;;;;;;9.90;9.60;;;7.40;99.90;;;;;;6078204;23;20257;-80
2024/01/05 10:29:42;;;;;;;10.30;10.00;;;7.50;99.90;;;;;;6081811;23;20202;-80
2024/01/05 10:32:16;;;;;;;10.20;9.90;;;7.50;99.90;;;;;;6089381;23;20206;-80
2024/01/05 10:34:46;;;;;;;10.13;9.83;;;7.50;99.90;;;;;;6088572;23;20207;-80
2024/01/05 10:37:14;;;;;;;10.07;9.77;;;7.60;99.90;;;;;;6084683;23;20202;-80
2024/01/05 10:39:46;;;;;;;10.00;9.70;;;7.70;99.90;;;;;;6077606;23;20234;-80
2024/01/05 10:42:21;;;;;;;9.80;9.50;;;7.90;99.90;;;;;;6078476;23;20194;-81
2024/01/05 10:44:52;;;;;;;10.10;9.80;;;8.10;99.90;;;;;;6078576;23;20205;-82
2024/01/05 10:47:23;;;;;;;9.40;9.10;;;8.30;99.90;;;;;;6079036;23;20229;-80
2024/01/05 10:49:52;;;;;;;9.70;9.40;;;8.40;99.90;;;;;;6077155;23;20199;-81
2024/01/05 10:52:23;;;;;;;10.20;9.90;;;8.30;99.90;;;;;;6076121;23;20194;-81
2024/01/05 10:54:52;;;;;;;10.00;9.70;;;8.10;99.90;;;;;;6076974;23;20237;-81
2024/01/05 10:57:21;;;;;;;10.10;9.80;;;7.90;99.90;;;;;;6077146;23;20772;-80
2024/01/05 10:59:52;;;;;;;10.00;9.70;;;7.70;99.90;;;;;;6077144;23;20230;-81
2024/01/05 11:02:24;;;;;;;9.90;9.60;;;7.80;99.90;;;;;;6078550;23;20194;-81
2024/01/05 11:05:01;;;;;;;9.70;9.40;;;7.80;99.90;;;;;;6077576;23;20212;-81
2024/01/05 11:07:32;;;;;;;9.70;9.40;;;7.80;99.90;;;;;;6077476;23;20194;-81
2024/01/05 11:10:20;;;;;;;9.60;9.30;;;7.80;99.90;;;;;;6078701;23;20211;-81
2024/01/05 11:13:08;;;;;;;9.70;9.40;;;7.80;99.90;;;;;;6078669;23;20195;-81
2024/01/05 11:15:58;;;;;;;9.40;9.10;;;7.90;99.90;;;;;;6078527;23;20266;-81
2024/01/05 11:19:07;;;;;;;9.30;9.00;;;7.90;99.90;;;;;;6079375;23;20199;-81
2024/01/05 11:21:45;;;;;;;9.70;9.40;;;8.00;99.90;;;;;;6075921;23;20202;-82
2024/01/05 11:24:14;;;;;;;9.60;9.30;;;8.00;99.90;;;;;;6079848;23;20206;-82
2024/01/05 11:26:42;;;;;;;9.60;9.30;;;8.10;99.90;;;;;;6080019;23;20202;-81
2024/01/05 11:29:12;;;;;;;10.00;9.70;;;8.10;99.90;;;;;;6079390;23;20277;-81
2024/01/05 11:31:53;;;;;;;10.00;9.70;;;8.10;99.90;;;;;;6079828;23;20186;-81
2024/01/05 11:34:46;;;;;;;9.80;9.50;;;8.20;99.90;;;;;;6077999;23;20217;-87
2024/01/05 11:40:47;;;;;;;;;;;;;;;;;;;;;
2024/01/05 11:43:59;;;;;;;9.50;9.20;;;8.30;99.90;;;;;;6049412;23;20223;-87
2024/01/05 11:46:55;;;;;;;9.37;9.07;;;8.40;99.90;;;;;;6018344;23;20203;-87
2024/01/05 11:49:47;;;;;;;9.70;9.40;;;8.40;99.90;;;;;;6011701;23;20215;-86
2024/01/05 11:52:29;;;;;;;9.73;9.43;;;8.50;99.90;;;;;;6019209;23;20267;-87
2024/01/05 11:55:40;;;;;;;9.30;9.00;;;8.50;99.90;;;;;;6029420;23;20247;-87
2024/01/05 11:58:22;;;;;;;8.97;8.77;;;8.60;99.90;;;;;;6025617;23;20219;-89
2024/01/05 12:01:07;;;;;;;9.50;9.20;;;8.60;99.90;;;;;;6037757;23;20251;-87
2024/01/05 12:03:43;;;;;;;9.50;9.20;;;8.70;99.90;;;;;;6020795;23;20210;-86
2024/01/05 12:06:47;;;;;;;8.97;8.77;;;8.70;99.90;;;;;;6019155;23;20267;-86
2024/01/05 12:09:21;;;;;;;9.20;8.90;;;8.70;99.90;;;;;;6018696;23;20219;-87
2024/01/05 12:12:35;;;;;;;9.13;8.90;;;8.80;99.90;;;;;;6018918;23;20230;-87
2024/01/05 12:15:24;;;;;;;9.00;8.80;;;8.80;99.90;;;;;;6019899;23;20215;-86
2024/01/05 12:18:12;;;;;;;8.90;8.70;;;8.80;99.90;;;;;;6018132;23;20204;-87
2024/01/05 12:20:50;;;;;;;9.00;8.80;;;8.90;99.90;;;;;;6018719;23;20260;-87
2024/01/05 12:23:39;;;;;;;8.70;8.50;;;9.00;99.90;;;;;;6018106;23;20206;-87
2024/01/05 12:26:31;;;;;;;;;;;;;;;;;;;;;
2024/01/05 12:29:14;;;;;;;9.30;9.00;;;9.10;99.90;;;;;;6017713;23;20204;-87
2024/01/05 12:31:58;;;;;;;8.70;8.50;;;9.20;99.90;;;;;;6020492;23;20227;-87
2024/01/05 12:34:33;;;;;;;8.80;8.60;;;9.30;99.90;;;;;;6016229;23;20390;-87
2024/01/05 12:37:14;;;;;;;9.00;8.80;;;9.40;99.90;;;;;;6017246;23;20302;-87
2024/01/05 12:39:50;;;;;;;9.20;8.90;;;9.50;99.90;;;;;;6018331;23;20308;-87
2024/01/05 12:42:41;;;;;;;8.90;8.70;;;9.50;99.90;;;;;;6018840;23;20195;-87
2024/01/05 12:45:43;;;;;;;9.00;8.80;;;9.50;99.90;;;;;;6025736;23;20231;-86
2024/01/05 12:48:26;;;;;;;9.53;9.23;;;9.50;99.90;;;;;;6016659;23;20274;-87
2024/01/05 12:51:30;;;;;;;9.20;8.90;;;9.40;99.90;;;;;;6016538;23;20235;-87
2024/01/05 12:54:06;;;;;;;8.90;8.70;;;9.40;99.90;;;;;;6015629;23;20207;-87
2024/01/05 12:56:54;;;;;;;8.47;8.27;;;9.30;99.90;;;;;;6015957;23;20268;-87
2024/01/05 12:59:30;;;;;;;8.40;8.20;;;9.30;99.90;;;;;;6015581;23;20674;-86
2024/01/05 13:02:07;;;;;;;8.50;8.30;;;9.20;99.90;;;;;;6016444;23;20195;-87
2024/01/05 13:04:42;;;;;;;8.80;8.60;;;9.30;99.90;;;;;;6016781;23;20210;-86
2024/01/05 13:07:23;;;;;;;8.93;8.73;;;9.30;99.90;;;;;;6017553;23;20203;-87
2024/01/05 13:10:18;;;;;;;9.13;8.83;;;9.20;99.90;;;;;;6023670;23;20200;-87
2024/01/05 13:13:02;;;;;;;8.87;8.67;;;9.20;99.90;;;;;;6032468;23;20184;-87
2024/01/05 13:15:39;;;;;;;9.20;8.90;;;9.10;99.90;;;;;;6029208;23;20211;-88
2024/01/05 13:18:18;;;;;;;9.27;8.97;;;9.10;99.90;;;;;;6034857;23;20187;-89
2024/01/05 13:21:07;;;;;;;9.13;8.87;;;9.10;99.90;;;;;;6016582;23;20199;-88
2024/01/05 13:23:56;;;;;;;9.30;9.00;;;9.00;99.90;;;;;;6017533;23;20214;-88
2024/01/05 13:26:37;;;;;;;8.70;8.50;;;9.00;99.90;;;;;;6017207;23;20200;-88
2024/01/05 13:29:19;;;;;;;9.13;8.87;;;9.00;99.90;;;;;;6016600;23;20199;-88
2024/01/05 13:32:04;;;;;;;8.93;8.73;;;8.90;99.90;;;;;;6015645;23;20267;-87
2024/01/05 13:34:42;;;;;;;8.80;8.60;;;8.90;99.90;;;;;;6015311;23;20211;-88
2024/01/05 13:37:23;;;;;;;8.63;8.43;;;8.80;99.90;;;;;;6015612;23;20325;-88
2024/01/05 13:40:26;;;;;;;8.70;8.50;;;8.80;99.90;;;;;;6022887;23;20267;-88
2024/01/05 13:46:31;;;;;;;;;;;;;;;;;;;;;
2024/01/05 13:49:15;;;;;;;9.30;9.00;;;8.80;99.90;;;;;;6029729;23;20200;-87
2024/01/05 13:52:11;;;;;;;8.83;8.63;;;8.70;99.90;;;;;;6016016;23;20203;-87
2024/01/05 13:54:55;;;;;;;9.10;8.80;;;8.70;99.90;;;;;;6016001;23;20291;-87
2024/01/05 13:57:49;;;;;;;8.80;8.60;;;8.70;99.90;;;;;;6017533;23;20242;-86
2024/01/05 14:03:49;;;;;;;;;;;;;;;;;;;;;
2024/01/05 14:06:41;;;;;;;;;;;;;;;;;;;;;
2024/01/05 14:09:31;;;;;;;;;;;;;;;;;;;;;
2024/01/05 14:12:25;;;;;;;8.50;8.30;;;8.70;99.90;;;;;;6017667;23;20695;-87
2024/01/05 14:15:13;;;;;;;8.53;8.33;;;8.70;99.90;;;;;;6038005;23;20215;-87
2024/01/05 14:20:55;;;;;;;8.43;8.23;;;8.60;99.90;;;;;;6020102;23;20191;-87
2024/01/05 14:23:58;;;;;;;8.50;8.30;;;8.60;99.90;;;;;;6017644;23;20207;-87
2024/01/05 14:26:43;;;;;;;8.50;8.30;;;8.60;99.90;;;;;;6022091;23;20293;-87
2024/01/05 14:29:19;;;;;;;8.53;8.33;;;8.60;99.90;;;;;;6016590;23;20267;-87
2024/01/05 14:32:03;;;;;;;8.60;8.40;;;8.60;99.90;;;;;;6017160;23;20214;-86
2024/01/05 14:34:40;;;;;;;8.20;8.00;;;8.60;99.90;;;;;;6016833;23;20750;-87
2024/01/05 14:40:23;;;;;;;8.30;8.10;;;8.60;99.90;;;;;;6042713;23;20211;-87
2024/01/05 14:43:00;;;;;;;8.40;8.20;;;8.60;99.90;;;;;;6016500;23;20192;-87
2024/01/05 14:45:54;;;;;;;8.20;8.00;;;8.60;99.90;;;;;;6018561;23;20204;-87
2024/01/05 14:48:38;;;;;;;8.10;7.90;;;8.60;99.90;;;;;;6018389;23;20203;-86
2024/01/05 14:51:50;;;;;;;;;;;;;;;;;;;;;
2024/01/05 14:54:38;;;;;;;8.30;8.10;;;8.70;99.90;;;;;;6018061;23;20211;-87
2024/01/05 14:57:31;;;;;;;8.50;8.30;;;8.70;99.90;;;;;;6020332;23;20231;-87
2024/01/05 15:00:15;;;;;;;;;;;;;;;;;;;;;
2024/01/05 15:03:19;;;;;;;8.40;8.20;;;8.80;99.90;;;;;;6017991;23;20291;-87
2024/01/05 15:06:12;;;;;;;8.07;7.87;;;8.90;99.90;;;;;;6017956;23;20274;-87
2024/01/05 15:12:00;;;;;;;8.17;7.97;;;8.80;99.90;;;;;;6019439;23;20263;-88
2024/01/05 15:15:06;;;;;;;7.90;7.70;;;8.70;99.90;;;;;;6017974;23;20208;-87
2024/01/05 15:17:40;;;;;;;8.20;8.00;;;8.70;99.90;;;;;;6018568;23;20207;-87
2024/01/05 15:20:40;;;;;;;8.50;8.30;;;8.70;99.90;;;;;;6017484;23;20199;-87
2024/01/05 15:23:55;;;;;;;8.27;8.07;;;8.60;99.90;;;;;;6016953;23;20210;-87
2024/01/05 15:27:24;;;;;;;8.40;8.20;;;8.50;99.90;;;;;;6016345;23;20213;-87
2024/01/05 15:33:19;;;;;;;8.57;8.37;;;8.30;99.90;;;;;;6042112;23;20256;-87
2024/01/05 15:35:59;;;;;;;8.70;8.50;;;8.20;99.90;;;;;;6016052;23;20930;-87
2024/01/05 15:38:41;;;;;;;8.10;7.90;;;8.20;99.90;;;;;;6016592;23;20196;-87
2024/01/05 15:41:39;;;;;;;;;;;;;;;;;;;;;
2024/01/05 15:44:29;;;;;;;8.40;8.20;;;8.10;99.90;;;;;;6016690;23;20196;-88
2024/01/05 15:47:29;;;;;;;8.03;7.83;;;8.10;99.90;;;;;;6016284;23;20235;-87
2024/01/05 15:56:36;;;;;;;8.90;8.70;;;8.00;99.90;;;;;;6015376;23;20263;-87
2024/01/05 15:59:23;;;;;;;9.20;8.90;;;8.00;99.90;;;;;;6027060;23;20282;-87
2024/01/05 16:02:28;;;;;;;8.83;8.63;;;7.90;99.90;;;;;;6016413;23;20206;-87
2024/01/05 16:05:39;;;;;;;8.60;8.40;;;7.90;99.90;;;;;;6015979;23;20218;-87
2024/01/05 16:08:35;;;;;;;9.10;8.80;;;7.90;99.90;;;;;;6017320;23;20263;-87
2024/01/05 16:12:18;;;;;;;9.00;8.80;;;7.90;99.90;;;;;;6017735;23;20207;-88
2024/01/05 16:18:42;;;;;;;8.77;8.57;;;7.90;99.90;;;;;;6018855;23;20211;-87
2024/01/05 16:25:15;;;;;;;;;;;;;;;;;;;;;
2024/01/05 16:28:38;;;;;;;;;;;;;;;;;;;;;
2024/01/05 16:31:54;;;;;;;8.80;8.60;;;7.80;99.90;;;;;;6018279;23;20208;-87
2024/01/05 16:35:49;;;;;;;;;;;;;;;;;;;;;
2024/01/05 16:42:02;;;;;;;8.73;8.53;;;7.70;99.90;;;;;;6032856;23;20267;-87
2024/01/05 16:45:11;;;;;;;8.87;8.67;;;7.70;99.90;;;;;;6018173;23;20208;-87
2024/01/05 16:48:29;;;;;;;8.63;8.43;;;7.70;99.90;;;;;;6017729;23;20277;-87
2024/01/05 16:52:00;;;;;;;8.90;8.70;;;7.70;99.90;;;;;;6017407;23;20231;-88
2024/01/05 16:57:54;;;;;;;;;;;;;;;;;;;;;
2024/01/05 17:04:58;;;;;;;;;;;;;;;;;;;;;
2024/01/05 17:18:06;;;;;;;8.70;8.50;;;7.80;99.90;;;;;;6110838;23;20205;-86
2024/01/05 17:25:05;;;;;;;8.70;8.50;;;7.70;99.90;;;;;;6040666;23;20205;-87
2024/01/05 17:34:45;;;;;;;9.40;9.10;;;7.20;99.90;;;;;;6089291;23;20220;-81
2024/01/05 17:37:14;;;;;;;9.10;8.80;;;7.20;99.90;;;;;;6078500;23;20191;-81
2024/01/05 17:39:42;;;;;;;9.50;9.20;;;7.20;99.90;;;;;;6078000;23;20198;-81
2024/01/05 17:42:10;;;;;;;9.37;9.07;;;7.20;99.90;;;;;;6077471;23;20194;-83
2024/01/05 17:44:39;;;;;;;9.43;9.13;;;7.20;99.90;;;;;;6078067;23;20206;-81
2024/01/05 17:47:06;;;;;;;9.37;9.07;;;7.20;99.90;;;;;;6076967;23;20218;-82
2024/01/05 17:49:33;;;;;;;9.70;9.40;;;7.20;99.90;;;;;;6077689;23;20194;-81
2024/01/05 17:52:01;;;;;;;9.70;9.40;;;7.30;99.90;;;;;;6078520;23;20211;-81
2024/01/05 17:54:29;;;;;;;9.50;9.20;;;7.30;99.90;;;;;;6077725;23;20257;-81
2024/01/05 17:57:02;;;;;;;9.83;9.53;;;7.30;99.90;;;;;;6078531;23;20213;-81
2024/01/05 17:59:29;;;;;;;9.60;9.30;;;7.40;99.90;;;;;;6077142;23;20234;-82
2024/01/05 18:01:57;;;;;;;9.47;9.17;;;7.40;99.90;;;;;;6077324;23;20213;-81
2024/01/05 18:04:24;;;;;;;9.57;9.27;;;7.30;99.90;;;;;;6076900;23;20199;-82
2024/01/05 18:06:51;;;;;;;9.90;9.60;;;7.30;99.90;;;;;;6077511;23;20198;-81
2024/01/05 18:09:18;;;;;;;10.00;9.70;;;7.20;99.90;;;;;;6079079;23;20198;-81
2024/01/05 18:11:47;;;;;;;9.80;9.50;;;7.10;99.90;;;;;;6079195;23;20213;-82
2024/01/05 18:14:15;;;;;;;9.90;9.60;;;7.10;99.90;;;;;;6077371;23;20270;-81
2024/01/05 18:16:42;;;;;;;9.70;9.40;;;7.00;99.90;;;;;;6077514;23;20206;-81
2024/01/05 18:19:10;;;;;;;10.13;9.83;;;7.00;99.90;;;;;;6078941;23;20202;-82
2024/01/05 18:21:41;;;;;;;9.90;9.60;;;7.10;99.90;;;;;;6081617;23;20257;-82
2024/01/05 18:24:08;;;;;;;9.93;9.63;;;7.00;99.90;;;;;;6079694;23;20198;-82
2024/01/05 18:26:37;;;;;;;10.10;9.80;;;7.00;99.90;;;;;;6078506;23;20229;-82
2024/01/05 18:29:07;;;;;;;9.90;9.60;;;6.90;99.90;;;;;;6079028;23;20210;-82
2024/01/05 18:31:37;;;;;;;10.20;9.90;;;6.90;99.90;;;;;;6079275;23;20206;-82
2024/01/05 18:34:07;;;;;;;10.17;9.87;;;6.80;99.90;;;;;;6078337;23;20198;-82
2024/01/05 18:36:34;;;;;;;9.93;9.63;;;6.80;99.90;;;;;;6078263;23;20241;-82
2024/01/05 18:39:01;;;;;;;10.30;10.00;;;6.80;99.90;;;;;;6078674;23;20195;-82
2024/01/05 18:41:33;;;;;;;10.40;10.10;;;6.70;99.90;;;;;;6078981;23;20202;-82